Time;durP1;ratioP1;P1;durP2;ratioP2;P2;SDS_P1;SDS_P2;PMS_P1;PMS_P2;Temp;Humidity;BMP_temperature;BMP_pressure;BME280_temperature;BME280_humidity;BME280_pressure;Samples;Min_cycle;Max_cycle;Signal;HPM_P1;HPM_P2
2022/03/06 00:01:19;;;;;;;2.20;1.40;;;;;;;-1.97;66.66;99397.29;104785;1271;73187;-29
2022/03/06 00:03:49;;;;;;;2.80;1.30;;;;;;;-2.01;66.59;99399.61;104779;1271;61085;-29
2022/03/06 00:06:19;;;;;;;2.00;1.00;;;;;;;-1.98;66.36;99401.22;104811;1271;60995;-29
2022/03/06 00:08:49;;;;;;;1.70;0.90;;;;;;;-1.38;64.46;99405.49;104651;1271;73478;-29
2022/03/06 00:11:38;;;;;;;1.70;1.00;;;;;;;-0.77;62.17;99403.30;104700;1271;74437;-30
2022/03/06 00:14:08;;;;;;;1.90;1.30;;;;;;;-0.62;61.40;99400.84;104851;1271;72884;-29
2022/03/06 00:16:37;;;;;;;2.70;1.10;;;;;;;-0.72;61.57;99402.98;104774;1272;61112;-29
2022/03/06 00:19:07;;;;;;;3.90;1.70;;;;;;;-0.86;61.77;99403.73;104710;1271;61155;-29
2022/03/06 00:21:37;;;;;;;2.90;1.40;;;;;;;-1.03;62.26;99408.48;104784;1273;73869;-29
2022/03/06 00:24:06;;;;;;;7.60;3.20;;;;;;;-1.21;63.04;99409.30;104639;1271;76348;-29
2022/03/06 00:26:36;;;;;;;10.50;3.20;;;;;;;-1.38;63.34;99408.24;104883;1271;71488;-29
2022/03/06 00:29:06;;;;;;;7.00;2.30;;;;;;;-1.49;63.66;99410.05;104687;1273;61074;-29
2022/03/06 00:31:36;;;;;;;3.30;2.10;;;;;;;-1.57;64.14;99407.03;105015;1271;61147;-29
2022/03/06 00:34:05;;;;;;;4.00;1.70;;;;;;;-1.65;64.31;99407.05;104772;1274;73457;-28
2022/03/06 00:36:36;;;;;;;1.70;1.10;;;;;;;-1.77;64.42;99408.89;104790;1273;74523;-29
2022/03/06 00:39:08;;;;;;;4.20;1.50;;;;;;;-1.83;64.81;99408.04;104713;1273;72934;-29
2022/03/06 00:41:38;;;;;;;3.30;1.30;;;;;;;-1.92;64.87;99412.33;104642;1273;61160;-29
2022/03/06 00:44:08;;;;;;;2.40;1.30;;;;;;;-1.93;64.87;99407.92;104631;1273;61118;-29
2022/03/06 00:46:38;;;;;;;2.40;1.10;;;;;;;-1.97;64.84;99408.86;104797;1273;72886;-29
2022/03/06 00:49:08;;;;;;;2.60;1.30;;;;;;;-2.03;64.70;99408.83;104696;1273;74623;-29
2022/03/06 00:51:37;;;;;;;2.80;1.40;;;;;;;-2.06;65.36;99412.15;104820;1273;72651;-28
2022/03/06 00:54:07;;;;;;;1.90;1.20;;;;;;;-2.07;65.65;99406.55;104798;1273;61112;-29
2022/03/06 00:56:37;;;;;;;3.70;1.30;;;;;;;-2.12;65.60;99407.33;104925;1273;61097;-29
2022/03/06 00:59:07;;;;;;;3.50;1.80;;;;;;;-2.14;65.79;99406.20;104811;1273;73808;-29
2022/03/06 01:01:37;;;;;;;2.10;1.40;;;;;;;-2.15;65.85;99409.79;104829;1273;73570;-30
2022/03/06 01:04:08;;;;;;;3.30;1.60;;;;;;;-2.19;65.48;99403.77;104779;1273;72601;-29
2022/03/06 01:06:37;;;;;;;0.70;0.60;;;;;;;-2.19;65.21;99405.11;104770;1273;61145;-29
2022/03/06 01:09:06;;;;;;;1.60;1.20;;;;;;;-2.20;65.79;99406.16;104849;1273;61163;-29
2022/03/06 01:11:35;;;;;;;1.80;1.10;;;;;;;-2.22;65.91;99404.34;104751;1273;72838;-28
2022/03/06 01:14:06;;;;;;;3.20;1.20;;;;;;;-2.23;65.93;99399.96;104686;1273;74987;-28
2022/03/06 01:16:36;;;;;;;1.10;1.00;;;;;;;-2.26;65.52;99400.01;104653;1273;72819;-28
2022/03/06 01:19:05;;;;;;;2.10;1.10;;;;;;;-2.28;65.28;99401.75;104731;1273;60997;-28
2022/03/06 01:21:35;;;;;;;1.90;1.30;;;;;;;-2.28;65.38;99397.17;104810;1273;61156;-28
2022/03/06 01:24:05;;;;;;;1.00;0.70;;;;;;;-2.27;65.17;99401.06;104700;1273;74008;-28
2022/03/06 01:26:35;;;;;;;2.10;1.30;;;;;;;-2.28;65.48;99397.69;104620;1273;76005;-27
2022/03/06 01:29:04;;;;;;;2.10;1.00;;;;;;;-2.28;65.72;99397.67;104714;1273;72128;-29
2022/03/06 01:31:33;;;;;;;1.60;0.80;;;;;;;-2.23;66.16;99396.38;104802;1271;61141;-30
2022/03/06 01:34:03;;;;;;;0.90;0.50;;;;;;;-1.56;65.55;99400.33;104817;1273;61141;-30
2022/03/06 01:36:33;;;;;;;0.70;0.70;;;;;;;-0.51;63.95;99397.95;104621;1274;72770;-30
2022/03/06 01:39:02;;;;;;;2.50;1.00;;;;;;;-0.16;62.49;99398.75;104817;1271;73131;-30
2022/03/06 01:41:34;;;;;;;1.40;0.70;;;;;;;-0.21;61.74;99397.55;104955;1271;73586;-31
2022/03/06 01:44:04;;;;;;;2.10;0.80;;;;;;;-0.40;62.56;99396.59;104988;1271;61180;-30
2022/03/06 01:46:34;;;;;;;0.90;0.60;;;;;;;-0.65;62.42;99396.66;105118;1271;61488;-30
2022/03/06 01:49:04;;;;;;;1.40;0.80;;;;;;;-0.87;62.80;99397.11;105148;1271;74123;-32
2022/03/06 01:51:34;;;;;;;1.70;1.00;;;;;;;-1.17;63.03;99399.67;105002;1271;73599;-30
2022/03/06 01:54:03;;;;;;;2.50;1.10;;;;;;;-1.40;63.69;99400.80;105169;1271;72960;-28
2022/03/06 01:56:34;;;;;;;2.20;1.00;;;;;;;-1.57;64.01;99398.52;105177;1271;61167;-28
2022/03/06 01:59:04;;;;;;;2.80;0.90;;;;;;;-1.78;64.19;99396.66;104721;1271;61043;-28
2022/03/06 02:01:33;;;;;;;1.40;0.80;;;;;;;-1.89;64.34;99397.94;105012;1271;73848;-28
2022/03/06 02:04:04;;;;;;;1.70;0.90;;;;;;;-1.99;64.56;99393.24;105139;1271;73615;-28
2022/03/06 02:06:34;;;;;;;1.90;1.00;;;;;;;-2.04;64.98;99396.79;104950;1271;71622;-28
2022/03/06 02:09:04;;;;;;;1.70;1.00;;;;;;;-2.10;65.46;99396.23;104652;1271;61001;-28
2022/03/06 02:11:34;;;;;;;1.20;0.80;;;;;;;-2.15;65.66;99394.98;104732;1271;61060;-30
2022/03/06 02:14:03;;;;;;;2.80;1.10;;;;;;;-2.19;65.72;99392.55;104817;1271;74517;-28
2022/03/06 02:16:34;;;;;;;1.50;1.20;;;;;;;-2.21;66.20;99397.19;104624;1271;74624;-30
2022/03/06 02:19:24;;;;;;;4.20;1.50;;;;;;;-2.25;66.19;99395.74;104666;1271;72718;-29
2022/03/06 02:21:54;;;;;;;2.40;1.30;;;;;;;-2.28;66.90;99396.48;104821;1270;61035;-28
2022/03/06 02:24:23;;;;;;;1.90;0.90;;;;;;;-2.26;67.44;99400.19;105051;1271;61042;-28
2022/03/06 02:26:52;;;;;;;1.40;0.80;;;;;;;-2.30;68.49;99395.69;105089;1271;74222;-28
2022/03/06 02:29:22;;;;;;;1.00;0.70;;;;;;;-2.29;68.27;99398.91;104997;1271;73355;-29
2022/03/06 02:31:51;;;;;;;1.20;0.80;;;;;;;-1.67;66.81;99401.33;104931;1271;73067;-29
2022/03/06 02:34:21;;;;;;;1.70;1.00;;;;;;;-0.95;64.27;99404.34;104973;1271;61032;-29
2022/03/06 02:36:50;;;;;;;1.00;0.70;;;;;;;-0.75;63.13;99404.96;104782;1271;61147;-29
2022/03/06 02:39:24;;;;;;;3.20;1.00;;;;;;;-1.01;62.80;99401.77;104644;1271;72752;-29
2022/03/06 02:41:54;;;;;;;1.30;0.80;;;;;;;-1.22;63.29;99403.71;104459;1271;74370;-29
2022/03/06 02:44:25;;;;;;;1.10;0.60;;;;;;;-1.27;63.80;99401.63;104856;1271;71693;-29
2022/03/06 02:46:54;;;;;;;1.10;0.90;;;;;;;-1.48;64.04;99402.52;104801;1271;61039;-29
2022/03/06 02:49:25;;;;;;;2.10;1.10;;;;;;;-1.62;64.66;99402.73;104795;1271;61117;-29
2022/03/06 02:51:54;;;;;;;2.00;1.00;;;;;;;-1.74;65.12;99403.88;105020;1271;72783;-29
2022/03/06 02:54:24;;;;;;;1.20;0.70;;;;;;;-1.83;65.88;99400.70;105023;1271;74658;-29
2022/03/06 02:56:54;;;;;;;1.50;0.80;;;;;;;-1.98;66.26;99401.05;105110;1271;71639;-29
2022/03/06 02:59:23;;;;;;;3.10;1.20;;;;;;;-2.04;66.36;99404.11;105151;1271;61161;-29
2022/03/06 03:01:54;;;;;;;1.80;0.80;;;;;;;-2.14;66.56;99400.24;105031;1272;61597;-29
2022/03/06 03:04:24;;;;;;;1.50;1.00;;;;;;;-2.17;67.14;99401.51;105099;1271;74077;-29
2022/03/06 03:06:53;;;;;;;2.60;1.00;;;;;;;-2.20;66.95;99401.23;105172;1271;72325;-29
2022/03/06 03:09:25;;;;;;;4.60;1.30;;;;;;;-2.20;66.79;99399.03;105132;1271;71630;-29
2022/03/06 03:11:57;;;;;;;2.20;1.20;;;;;;;-2.28;67.17;99395.80;105008;1271;61154;-29
2022/03/06 03:14:31;;;;;;;3.00;0.80;;;;;;;-2.31;67.61;99394.85;104856;1271;61058;-29
2022/03/06 03:17:04;;;;;;;1.80;1.00;;;;;;;-2.33;67.96;99394.58;104827;1271;72786;-29
2022/03/06 03:19:35;;;;;;;3.10;1.20;;;;;;;-2.35;68.33;99395.98;104685;1271;74234;-29
2022/03/06 03:22:06;;;;;;;1.90;1.00;;;;;;;-2.37;68.23;99394.80;104857;1271;71689;-29
2022/03/06 03:24:35;;;;;;;1.60;1.00;;;;;;;-1.80;67.15;99397.70;104686;1271;61039;-29
2022/03/06 03:27:05;;;;;;;0.90;0.60;;;;;;;-1.03;64.28;99397.08;104846;1271;61145;-29
2022/03/06 03:29:34;;;;;;;2.20;1.10;;;;;;;-0.90;62.85;99397.88;104755;1271;74004;-29
2022/03/06 03:32:05;;;;;;;0.90;0.80;;;;;;;-1.05;62.69;99398.82;104712;1271;74573;-29
2022/03/06 03:34:35;;;;;;;2.20;1.10;;;;;;;-1.16;63.50;99399.80;104442;1271;72867;-29
2022/03/06 03:37:04;;;;;;;1.50;1.00;;;;;;;-1.47;64.25;99399.63;104800;1271;61135;-29
2022/03/06 03:39:33;;;;;;;2.60;0.90;;;;;;;-1.63;64.89;99398.48;104822;1271;61233;-29
2022/03/06 03:42:03;;;;;;;1.50;1.00;;;;;;;-1.79;65.27;99397.02;104834;1271;72825;-29
2022/03/06 03:44:33;;;;;;;2.30;0.90;;;;;;;-1.89;65.90;99399.14;104504;1271;75975;-29
2022/03/06 03:47:03;;;;;;;1.80;0.90;;;;;;;-1.99;66.17;99405.16;104717;1271;72660;-28
2022/03/06 03:49:34;;;;;;;3.70;1.00;;;;;;;-2.13;66.66;99401.08;104407;1273;61008;-28
2022/03/06 03:52:04;;;;;;;1.20;0.70;;;;;;;-2.25;66.41;99401.86;104661;1273;61164;-28
2022/03/06 03:54:33;;;;;;;2.00;1.00;;;;;;;-2.31;66.56;99399.11;104824;1271;73980;-28
2022/03/06 03:57:04;;;;;;;1.90;1.20;;;;;;;-2.32;66.79;99399.82;104761;1273;72272;-28
2022/03/06 03:59:33;;;;;;;2.60;1.40;;;;;;;-2.38;66.66;99401.48;104658;1271;72874;-28
2022/03/06 04:02:03;;;;;;;1.90;0.90;;;;;;;-2.41;66.75;99403.07;104862;1271;61069;-28
2022/03/06 04:04:34;;;;;;;1.70;0.80;;;;;;;-2.42;67.23;99409.20;104809;1271;61144;-30
2022/03/06 04:07:04;;;;;;;2.50;0.90;;;;;;;-2.47;66.98;99408.33;104636;1272;72794;-29
2022/03/06 04:09:33;;;;;;;1.40;1.00;;;;;;;-2.47;67.15;99412.23;104780;1271;73069;-30
2022/03/06 04:12:03;;;;;;;1.90;1.10;;;;;;;-2.54;67.46;99415.58;104781;1271;72915;-28
2022/03/06 04:14:33;;;;;;;1.40;0.90;;;;;;;-2.49;67.57;99416.17;104608;1271;61155;-28
2022/03/06 04:17:04;;;;;;;2.80;1.40;;;;;;;-1.90;66.30;99414.13;104838;1271;60941;-28
2022/03/06 04:19:33;;;;;;;1.20;1.00;;;;;;;-1.29;63.93;99414.81;104639;1273;72604;-29
2022/03/06 04:22:03;;;;;;;2.30;1.20;;;;;;;-0.99;63.47;99420.83;104841;1271;74266;-30
2022/03/06 04:24:33;;;;;;;1.30;0.80;;;;;;;-1.10;62.78;99417.35;104949;1271;73272;-29
2022/03/06 04:27:03;;;;;;;2.70;1.10;;;;;;;-1.27;63.40;99418.66;104831;1272;61151;-28
2022/03/06 04:29:33;;;;;;;3.50;1.50;;;;;;;-1.48;63.64;99420.58;104993;1271;61230;-28
2022/03/06 04:32:03;;;;;;;1.70;1.10;;;;;;;-1.65;64.32;99416.77;105162;1271;73074;-29
2022/03/06 04:34:32;;;;;;;2.20;1.20;;;;;;;-1.71;64.96;99415.20;104596;1273;74535;-29
2022/03/06 04:37:08;;;;;;;5.10;1.20;;;;;;;-1.91;65.40;99419.79;104931;1273;72728;-28
2022/03/06 04:39:37;;;;;;;1.90;0.90;;;;;;;-2.01;66.03;99418.99;104922;1273;61035;-28
2022/03/06 04:42:07;;;;;;;2.00;1.10;;;;;;;-2.09;66.31;99418.16;105036;1273;61067;-28
2022/03/06 04:44:37;;;;;;;1.20;1.00;;;;;;;-2.20;66.27;99418.58;104772;1273;74186;-29
2022/03/06 04:47:07;;;;;;;2.30;1.30;;;;;;;-2.23;66.72;99415.60;104626;1273;74935;-29
2022/03/06 04:49:36;;;;;;;2.20;1.20;;;;;;;-2.36;66.17;99415.20;104395;1274;72871;-28
2022/03/06 04:52:06;;;;;;;1.70;1.10;;;;;;;-2.38;66.31;99416.11;104589;1273;61169;-28
2022/03/06 04:54:42;;;;;;;2.20;1.00;;;;;;;-2.39;66.60;99414.23;104956;1273;61762;-28
2022/03/06 04:57:14;;;;;;;2.90;1.10;;;;;;;-2.46;66.47;99415.93;104796;1273;72863;-28
2022/03/06 04:59:43;;;;;;;1.70;1.20;;;;;;;-2.42;67.07;99418.73;104688;1273;74550;-29
2022/03/06 05:02:12;;;;;;;1.80;1.20;;;;;;;-2.46;67.22;99419.01;104688;1273;70438;-29
2022/03/06 05:04:42;;;;;;;3.00;1.60;;;;;;;-2.47;67.37;99419.88;104652;1274;61116;-30
2022/03/06 05:07:11;;;;;;;2.10;1.60;;;;;;;-2.48;67.52;99417.52;104618;1273;60964;-28
2022/03/06 05:09:44;;;;;;;1.30;0.90;;;;;;;-2.44;67.57;99419.97;104586;1273;73786;-28
2022/03/06 05:12:13;;;;;;;1.10;0.80;;;;;;;-1.83;66.17;99417.71;104980;1273;73025;-30
2022/03/06 05:14:50;;;;;;;2.30;1.20;;;;;;;-1.04;64.16;99423.32;104764;1273;72932;-29
2022/03/06 05:17:20;;;;;;;2.40;1.50;;;;;;;-0.96;62.93;99423.45;105046;1273;61155;-30
2022/03/06 05:19:50;;;;;;;1.10;0.90;;;;;;;-1.06;62.76;99420.14;104902;1273;61186;-28
2022/03/06 05:22:19;;;;;;;2.50;1.30;;;;;;;-1.17;63.55;99421.98;104784;1274;74090;-29
2022/03/06 05:24:49;;;;;;;1.60;1.10;;;;;;;-1.39;64.32;99422.73;104428;1274;74534;-28
2022/03/06 05:27:19;;;;;;;2.30;1.30;;;;;;;-1.39;66.16;99423.23;104713;1273;71993;-30
2022/03/06 05:29:48;;;;;;;1.40;1.10;;;;;;;-1.48;67.51;99418.87;104919;1273;61141;-31
2022/03/06 05:32:18;;;;;;;1.90;1.10;;;;;;;-1.66;67.86;99418.81;104790;1273;61040;-30
2022/03/06 05:34:49;;;;;;;2.30;1.40;;;;;;;-1.76;67.82;99417.90;104652;1272;73968;-29
2022/03/06 05:37:19;;;;;;;3.10;1.30;;;;;;;-1.88;68.36;99415.98;104677;1271;74530;-28
2022/03/06 05:39:48;;;;;;;2.30;1.40;;;;;;;-1.98;68.50;99413.81;104801;1271;72641;-28
2022/03/06 05:42:19;;;;;;;2.10;1.50;;;;;;;-2.04;68.98;99411.40;104719;1271;61177;-28
2022/03/06 05:44:48;;;;;;;2.90;1.90;;;;;;;-2.07;69.08;99407.58;104866;1271;61084;-28
2022/03/06 05:47:18;;;;;;;2.00;1.30;;;;;;;-2.10;69.35;99409.00;104837;1271;74066;-29
2022/03/06 05:49:47;;;;;;;2.90;2.00;;;;;;;-2.10;69.47;99409.85;104832;1271;73747;-30
2022/03/06 05:52:17;;;;;;;2.20;1.10;;;;;;;-2.14;68.90;99409.08;104630;1273;73156;-30
2022/03/06 05:54:46;;;;;;;3.60;1.70;;;;;;;-1.53;67.52;99412.34;104856;1273;61126;-29
2022/03/06 05:57:16;;;;;;;2.10;1.20;;;;;;;-0.85;64.19;99411.55;104843;1271;61160;-29
2022/03/06 05:59:46;;;;;;;4.50;1.40;;;;;;;-0.71;63.24;99411.50;104905;1271;74067;-29
2022/03/06 06:02:15;;;;;;;5.20;2.20;;;;;;;-0.62;63.75;99413.11;104841;1271;73250;-29
2022/03/06 06:04:45;;;;;;;3.50;1.60;;;;;;;-0.77;63.98;99412.33;104768;1273;72750;-30
2022/03/06 06:07:15;;;;;;;3.00;1.40;;;;;;;-0.90;63.28;99414.76;104740;1271;61153;-28
2022/03/06 06:09:45;;;;;;;3.30;2.10;;;;;;;-1.05;63.53;99415.35;104823;1271;61056;-28
2022/03/06 06:12:14;;;;;;;7.80;3.40;;;;;;;-1.18;63.62;99416.23;104691;1271;73089;-28
2022/03/06 06:14:43;;;;;;;4.10;2.00;;;;;;;-1.26;63.85;99420.84;104694;1271;73230;-29
2022/03/06 06:17:13;;;;;;;1.50;1.20;;;;;;;-1.27;64.36;99422.59;104812;1271;72632;-28
2022/03/06 06:19:44;;;;;;;4.50;1.00;;;;;;;-1.27;64.27;99421.89;104787;1271;61158;-29
2022/03/06 06:22:13;;;;;;;3.50;1.90;;;;;;;-1.40;63.77;99428.55;104790;1271;61155;-28
2022/03/06 06:24:43;;;;;;;10.80;4.10;;;;;;;-1.53;63.31;99429.55;104809;1271;74118;-28
2022/03/06 06:27:12;;;;;;;8.40;3.00;;;;;;;-1.52;62.83;99434.30;104853;1271;74704;-28
2022/03/06 06:29:42;;;;;;;4.20;2.10;;;;;;;-1.46;62.66;99434.32;104879;1271;72775;-28
2022/03/06 06:32:11;;;;;;;7.20;3.20;;;;;;;-1.42;63.51;99432.00;104656;1273;61153;-28
2022/03/06 06:34:44;;;;;;;7.40;2.60;;;;;;;-1.39;63.59;99437.05;104637;1273;61027;-28
2022/03/06 06:37:14;;;;;;;6.00;2.70;;;;;;;-1.35;63.78;99436.10;104779;1273;74308;-29
2022/03/06 06:39:44;;;;;;;5.60;3.00;;;;;;;-1.33;63.93;99441.66;104789;1273;73549;-30
2022/03/06 06:42:14;;;;;;;4.10;2.20;;;;;;;-1.36;62.55;99440.38;104771;1273;71435;-29
2022/03/06 06:44:44;;;;;;;4.90;2.50;;;;;;;-1.39;62.41;99441.48;105135;1273;61149;-28
2022/03/06 06:47:14;;;;;;;5.00;2.40;;;;;;;-1.45;61.60;99446.56;104958;1273;61101;-28
2022/03/06 06:49:44;;;;;;;5.20;3.00;;;;;;;-1.45;62.16;99445.38;104794;1273;72860;-28
2022/03/06 06:52:14;;;;;;;5.10;2.20;;;;;;;-1.51;62.36;99443.65;104786;1273;74280;-28
2022/03/06 06:54:44;;;;;;;6.60;3.60;;;;;;;-1.56;62.45;99446.86;104995;1273;71796;-28
2022/03/06 06:58:04;;;;;;;2.70;1.80;;;;;;;-1.52;61.81;99443.35;104793;1273;61120;-28
2022/03/06 07:00:48;;;;;;;2.20;1.40;;;;;;;-1.37;61.23;99443.80;105087;1273;61063;-29
2022/03/06 07:03:18;;;;;;;5.10;2.10;;;;;;;-1.24;61.85;99446.53;105132;1273;73930;-28
2022/03/06 07:05:49;;;;;;;8.60;2.70;;;;;;;-1.17;60.99;99447.69;105130;1273;74571;-28
2022/03/06 07:08:19;;;;;;;4.30;2.10;;;;;;;-1.13;61.53;99448.81;104823;1273;72835;-29
2022/03/06 07:10:49;;;;;;;3.40;1.60;;;;;;;-1.12;61.28;99450.65;104677;1273;61112;-28
2022/03/06 07:13:19;;;;;;;3.60;1.70;;;;;;;-1.13;60.52;99453.22;104768;1273;61157;-28
2022/03/06 07:15:50;;;;;;;3.20;1.50;;;;;;;-0.96;60.42;99453.63;104676;1273;74137;-28
2022/03/06 07:18:20;;;;;;;3.60;1.70;;;;;;;-0.95;60.46;99452.23;105016;1273;74231;-28
2022/03/06 07:20:54;;;;;;;5.00;2.10;;;;;;;-0.97;59.75;99454.52;105110;1273;70800;-29
2022/03/06 07:23:24;;;;;;;3.50;1.60;;;;;;;-0.94;58.98;99455.45;104878;1273;61166;-31
2022/03/06 07:25:54;;;;;;;7.30;1.80;;;;;;;-0.84;58.85;99454.84;104877;1273;61003;-27
2022/03/06 07:28:28;;;;;;;2.90;1.70;;;;;;;-0.70;58.65;99454.95;104806;1273;74147;-31
2022/03/06 07:30:59;;;;;;;2.90;2.00;;;;;;;-0.57;58.71;99450.83;104833;1273;73217;-30
2022/03/06 07:33:29;;;;;;;3.20;1.60;;;;;;;-0.38;58.77;99450.61;104665;1273;73020;-30
2022/03/06 07:36:00;;;;;;;4.40;1.60;;;;;;;-0.32;58.04;99446.50;104691;1273;60968;-30
2022/03/06 07:38:31;;;;;;;2.70;1.80;;;;;;;-0.37;57.96;99443.74;105132;1273;61154;-31
2022/03/06 07:41:04;;;;;;;4.70;1.80;;;;;;;-0.38;57.37;99442.25;104899;1273;72924;-30
2022/03/06 07:43:35;;;;;;;2.00;1.40;;;;;;;-0.25;57.88;99435.55;104828;1273;74654;-31
2022/03/06 07:46:06;;;;;;;2.30;1.10;;;;;;;-0.32;57.09;99438.16;104706;1273;72868;-30
2022/03/06 07:48:36;;;;;;;2.80;1.20;;;;;;;-0.42;56.78;99436.56;104660;1273;62173;-27
2022/03/06 07:51:16;;;;;;;1.70;1.10;;;;;;;-0.37;57.35;99438.98;104766;1273;61058;-29
2022/03/06 07:53:48;;;;;;;2.40;1.20;;;;;;;-0.28;56.93;99437.85;104627;1273;74133;-29
2022/03/06 07:56:18;;;;;;;3.20;1.90;;;;;;;-0.25;56.20;99435.89;104653;1273;74814;-29
2022/03/06 07:58:48;;;;;;;2.10;1.30;;;;;;;-0.27;56.19;99434.75;104574;1273;71539;-29
2022/03/06 08:01:23;;;;;;;2.30;1.20;;;;;;;-0.13;56.52;99440.48;104626;1273;61159;-29
2022/03/06 08:03:57;;;;;;;2.00;1.20;;;;;;;-0.00;56.65;99435.30;104654;1273;61214;-29
2022/03/06 08:06:28;;;;;;;1.70;1.00;;;;;;;0.16;56.04;99436.67;104811;1273;72730;-30
2022/03/06 08:08:58;;;;;;;3.10;1.50;;;;;;;0.34;55.62;99437.79;105133;1273;73026;-29
2022/03/06 08:11:48;;;;;;;4.70;1.30;;;;;;;0.32;54.03;99434.41;104984;1273;72911;-29
2022/03/06 08:14:19;;;;;;;2.30;1.00;;;;;;;0.26;53.90;99432.23;105158;1273;61144;-29
2022/03/06 08:17:05;;;;;;;1.80;1.10;;;;;;;0.30;54.81;99429.54;104837;1273;61115;-29
2022/03/06 08:19:36;;;;;;;1.80;1.00;;;;;;;0.29;54.67;99430.60;104690;1273;72854;-29
2022/03/06 08:22:07;;;;;;;1.70;1.00;;;;;;;0.34;54.38;99431.66;104768;1273;73227;-29
2022/03/06 08:24:37;;;;;;;3.60;1.60;;;;;;;0.29;53.19;99428.73;104670;1273;71658;-29
2022/03/06 08:27:08;;;;;;;2.80;1.50;;;;;;;0.01;54.81;99427.75;104756;1273;61059;-29
2022/03/06 08:29:41;;;;;;;1.20;1.00;;;;;;;0.03;54.52;99431.60;105078;1272;61022;-29
2022/03/06 08:32:15;;;;;;;4.80;1.20;;;;;;;0.11;53.74;99430.31;105052;1273;73907;-29
2022/03/06 08:34:53;;;;;;;2.80;1.60;;;;;;;0.12;54.42;99427.23;104756;1273;72139;-29
2022/03/06 08:37:23;;;;;;;1.70;1.00;;;;;;;-0.06;53.32;99424.41;104777;1273;71641;-29
2022/03/06 08:39:53;;;;;;;2.50;1.30;;;;;;;-0.07;53.48;99423.04;104769;1273;61724;-29
2022/03/06 08:42:24;;;;;;;4.40;0.90;;;;;;;-0.14;54.37;99419.52;104800;1273;61137;-29
2022/03/06 08:44:57;;;;;;;;;;;;;;;-0.09;53.83;99417.82;104838;1273;74244;-29
2022/03/06 08:47:33;;;;;;;2.10;1.10;;;;;;;-0.03;53.97;99415.58;104908;1273;74572;-29
2022/03/06 08:50:09;;;;;;;1.80;1.20;;;;;;;-0.03;51.44;99408.58;104717;1273;72902;-29
2022/03/06 08:52:41;;;;;;;1.70;0.90;;;;;;;-0.03;50.98;99407.90;104438;1273;61073;-29
2022/03/06 08:55:19;;;;;;;3.30;0.90;;;;;;;0.03;48.64;99406.70;104632;1273;61150;-29
2022/03/06 08:57:49;;;;;;;1.30;0.80;;;;;;;-0.11;47.14;99409.69;104778;1273;72769;-29
2022/03/06 09:00:22;;;;;;;1.60;1.00;;;;;;;0.06;47.65;99408.12;104658;1273;74392;-29
2022/03/06 09:02:55;;;;;;;2.20;1.20;;;;;;;-0.02;47.82;99409.56;104626;1274;72747;-29
2022/03/06 09:05:26;;;;;;;2.70;1.20;;;;;;;0.10;48.35;99409.54;104678;1273;61196;-29
2022/03/06 09:08:18;;;;;;;1.90;0.80;;;;;;;0.25;49.66;99411.22;104859;1273;61061;-29
2022/03/06 09:10:51;;;;;;;;;;;;;;;0.09;49.00;99410.08;104721;1273;72808;-29
2022/03/06 09:13:26;;;;;;;1.50;1.10;;;;;;;0.08;50.88;99415.23;105092;1273;74630;-29
2022/03/06 09:16:22;;;;;;;1.40;0.90;;;;;;;-0.04;52.73;99413.41;104935;1273;72676;-29
2022/03/06 09:18:53;;;;;;;1.90;1.50;;;;;;;-0.13;52.23;99416.75;105102;1273;61045;-29
2022/03/06 09:21:28;;;;;;;1.50;1.00;;;;;;;-0.21;51.62;99413.73;105129;1273;61082;-28
2022/03/06 09:24:04;;;;;;;2.30;1.20;;;;;;;-0.08;51.28;99412.84;104886;1273;74156;-29
2022/03/06 09:26:38;;;;;;;1.70;1.00;;;;;;;-0.08;50.82;99409.77;104705;1273;74289;-29
2022/03/06 09:29:14;;;;;;;2.00;0.90;;;;;;;-0.30;50.01;99409.92;104937;1273;72952;-29
2022/03/06 09:31:50;;;;;;;1.40;1.10;;;;;;;-0.25;50.35;99409.27;104753;1273;61022;-29
2022/03/06 09:34:31;;;;;;;3.00;0.90;;;;;;;-0.26;49.78;99408.10;104806;1272;61034;-30
2022/03/06 09:37:03;;;;;;;2.10;0.90;;;;;;;-0.39;50.16;99411.38;104609;1272;71778;-28
2022/03/06 09:39:33;;;;;;;3.60;1.40;;;;;;;-0.64;50.81;99415.20;104857;1273;74576;-30
2022/03/06 09:42:11;;;;;;;1.70;1.30;;;;;;;-0.77;50.98;99411.81;104780;1271;72929;-29
2022/03/06 09:44:45;;;;;;;1.20;1.10;;;;;;;-0.64;50.64;99411.98;104713;1271;61051;-30
2022/03/06 09:47:15;;;;;;;2.10;1.20;;;;;;;-0.63;50.53;99410.92;104626;1273;61168;-30
2022/03/06 09:49:57;;;;;;;1.30;1.10;;;;;;;-0.64;50.78;99412.48;104751;1272;74119;-29
2022/03/06 09:52:31;;;;;;;1.00;0.70;;;;;;;-0.52;51.02;99409.92;104644;1273;74444;-30
2022/03/06 09:55:11;;;;;;;2.00;1.10;;;;;;;-0.54;50.91;99411.52;104789;1272;72778;-30
2022/03/06 09:57:44;;;;;;;2.30;1.10;;;;;;;-0.45;50.09;99410.05;104824;1271;61030;-30
2022/03/06 10:00:28;;;;;;;1.60;1.00;;;;;;;-0.55;50.92;99411.36;104774;1271;61741;-30
2022/03/06 10:03:01;;;;;;;2.40;1.10;;;;;;;-0.61;51.20;99408.46;104780;1271;72811;-30
2022/03/06 10:05:43;;;;;;;1.10;0.70;;;;;;;-0.68;50.86;99403.07;104694;1271;74592;-30
2022/03/06 10:08:27;;;;;;;1.50;0.90;;;;;;;-0.66;50.74;99402.66;104817;1271;72698;-30
2022/03/06 10:10:58;;;;;;;1.20;0.70;;;;;;;-0.65;52.07;99403.14;104647;1273;61035;-30
2022/03/06 10:13:38;;;;;;;1.40;0.90;;;;;;;-0.49;50.77;99400.10;104648;1271;61154;-29
2022/03/06 10:16:17;;;;;;;1.20;0.90;;;;;;;-0.37;50.19;99399.23;104636;1272;74151;-29
2022/03/06 10:18:56;;;;;;;1.30;0.90;;;;;;;-0.31;49.76;99400.93;104678;1272;74523;-29
2022/03/06 10:21:36;;;;;;;1.10;0.80;;;;;;;-0.25;49.96;99397.67;104474;1273;73003;-29
2022/03/06 10:24:14;;;;;;;1.70;1.00;;;;;;;-0.41;50.19;99390.33;104805;1273;61031;-29
2022/03/06 10:27:00;;;;;;;1.90;1.10;;;;;;;-0.55;50.93;99390.03;104647;1273;61164;-28
2022/03/06 10:29:47;;;;;;;1.30;1.10;;;;;;;-0.62;50.66;99385.81;104769;1271;75121;-28
2022/03/06 10:32:23;;;;;;;1.00;0.90;;;;;;;-0.48;52.27;99383.70;104779;1271;74653;-29
2022/03/06 10:34:56;;;;;;;1.70;1.10;;;;;;;-0.39;51.01;99381.04;104473;1273;72948;-29
2022/03/06 10:37:31;;;;;;;1.70;1.00;;;;;;;-0.32;51.24;99372.62;104636;1272;61075;-29
2022/03/06 10:40:07;;;;;;;1.60;1.10;;;;;;;-0.27;50.46;99375.05;104792;1273;61075;-29
2022/03/06 10:42:56;;;;;;;2.30;1.00;;;;;;;-0.26;50.31;99374.84;104627;1273;363710;-30
2022/03/06 10:46:13;;;;;;;1.30;1.00;;;;;;;-0.30;50.49;99374.45;105033;1273;74616;-29
2022/03/06 10:49:15;;;;;;;1.70;1.20;;;;;;;-0.33;50.05;99372.48;105022;1271;71479;-29
2022/03/06 10:51:50;;;;;;;4.20;1.20;;;;;;;-0.54;50.93;99371.60;104879;1271;61132;-29
2022/03/06 10:54:49;;;;;;;2.30;1.30;;;;;;;-0.65;50.77;99366.63;104687;1272;61066;-29
2022/03/06 10:57:25;;;;;;;2.50;1.30;;;;;;;-0.61;51.79;99365.48;104671;1273;72847;-29
2022/03/06 11:00:10;;;;;;;2.50;1.50;;;;;;;-0.78;53.31;99364.98;104651;1271;74622;-29
2022/03/06 11:02:54;;;;;;;2.90;1.60;;;;;;;-0.80;54.38;99363.48;104825;1271;71551;-29
2022/03/06 11:05:33;;;;;;;1.30;1.20;;;;;;;-0.89;53.83;99363.25;105037;1271;61086;-29
2022/03/06 11:08:06;;;;;;;2.30;1.40;;;;;;;-0.89;54.42;99363.42;105111;1273;61044;-29
2022/03/06 11:10:39;;;;;;;2.30;1.50;;;;;;;-0.74;54.76;99358.89;104723;1271;72766;-29
2022/03/06 11:13:13;;;;;;;2.30;1.40;;;;;;;-0.71;54.16;99359.48;104666;1271;74306;-29
2022/03/06 11:15:58;;;;;;;1.40;1.10;;;;;;;-0.65;53.09;99356.22;104714;1273;72865;-29
2022/03/06 11:18:36;;;;;;;1.70;1.00;;;;;;;-0.70;52.83;99358.45;104646;1273;61164;-28
2022/03/06 11:21:14;;;;;;;1.60;1.10;;;;;;;-0.65;53.16;99356.24;104819;1272;61148;-30
2022/03/06 11:23:49;;;;;;;1.80;1.40;;;;;;;-0.60;53.65;99356.59;104779;1273;73764;-28
2022/03/06 11:26:50;;;;;;;1.90;1.30;;;;;;;-0.71;52.56;99352.48;104631;1273;73876;-28
2022/03/06 11:29:54;;;;;;;1.80;1.20;;;;;;;-0.79;51.83;99349.67;105025;1273;72994;-28
2022/03/06 11:32:35;;;;;;;3.50;1.00;;;;;;;-0.87;52.14;99347.34;105055;1273;60996;-29
2022/03/06 11:35:11;;;;;;;1.80;1.10;;;;;;;-0.80;52.54;99343.56;105053;1273;61061;-28
2022/03/06 11:37:59;;;;;;;1.90;1.00;;;;;;;-0.74;51.85;99338.78;105017;1271;74156;-28
2022/03/06 11:40:40;;;;;;;;;;;;;;;-0.75;52.87;99334.02;104644;1272;72215;-28
2022/03/06 11:43:32;;;;;;;1.60;1.10;;;;;;;-0.77;52.01;99334.77;104831;1271;71554;-29
2022/03/06 11:46:18;;;;;;;2.90;1.50;;;;;;;-0.76;52.37;99329.25;104626;1273;61146;-28
2022/03/06 11:49:10;;;;;;;1.80;1.30;;;;;;;-0.73;52.44;99326.80;104649;1272;61132;-28
2022/03/06 11:51:59;;;;;;;1.70;1.10;;;;;;;-0.71;52.22;99323.20;104629;1273;74212;-28
2022/03/06 11:54:52;;;;;;;1.10;0.80;;;;;;;-0.62;52.67;99322.73;104684;1272;73482;-28